TimeEST,TemperatureF,Dew PointF,Humidity,Sea Level PressureIn,VisibilityMPH,Wind Direction,Wind SpeedMPH,Gust SpeedMPH,PrecipitationIn,Events,Conditions,WindDirDegrees,DateUTC
12:51 AM,30.0,25.0,82,30.45,10.0,Calm,Calm,-,N/A,,Scattered Clouds,0,2012-11-15 05:51:00
1:51 AM,28.0,23.0,81,30.44,10.0,Calm,Calm,-,N/A,,Partly Cloudy,0,2012-11-15 06:51:00
2:51 AM,28.0,24.1,85,30.43,10.0,Calm,Calm,-,N/A,,Partly Cloudy,0,2012-11-15 07:51:00
3:51 AM,26.1,23.0,88,30.42,10.0,Calm,Calm,-,N/A,,Partly Cloudy,0,2012-11-15 08:51:00
4:51 AM,25.0,23.0,92,30.41,9.0,South,3.5,-,N/A,,Scattered Clouds,170,2012-11-15 09:51:00
5:51 AM,26.1,23.0,88,30.40,10.0,Calm,Calm,-,N/A,,Scattered Clouds,0,2012-11-15 10:51:00
6:51 AM,26.1,21.9,84,30.41,10.0,SSE,3.5,-,N/A,,Partly Cloudy,160,2012-11-15 11:51:00
7:51 AM,27.0,23.0,85,30.43,10.0,Calm,Calm,-,N/A,,Scattered Clouds,0,2012-11-15 12:51:00
8:51 AM,30.0,26.1,85,30.43,10.0,WSW,3.5,-,N/A,,Scattered Clouds,240,2012-11-15 13:51:00
9:51 AM,36.0,28.9,76,30.42,10.0,WSW,3.5,-,N/A,,Scattered Clouds,250,2012-11-15 14:51:00
10:51 AM,41.0,26.6,57,30.39,10.0,Calm,Calm,-,N/A,,Scattered Clouds,0,2012-11-15 15:51:00
11:51 AM,44.1,27.0,51,30.40,10.0,North,6.9,-,N/A,,Scattered Clouds,360,2012-11-15 16:51:00
12:51 PM,45.0,28.9,53,30.39,10.0,NNE,6.9,-,N/A,,Scattered Clouds,30,2012-11-15 17:51:00
1:51 PM,45.0,30.9,58,30.38,10.0,NNE,5.8,-,N/A,,Scattered Clouds,30,2012-11-15 18:51:00
2:51 PM,44.6,30.2,57,30.35,10.0,North,6.9,-,N/A,,Mostly Cloudy,360,2012-11-15 19:51:00
3:51 PM,42.1,30.0,62,30.38,10.0,NNE,5.8,-,N/A,,Mostly Cloudy,20,2012-11-15 20:51:00
4:51 PM,41.0,32.0,70,30.38,10.0,North,3.5,-,N/A,,Mostly Cloudy,10,2012-11-15 21:51:00
5:51 PM,39.9,30.0,68,30.38,10.0,North,4.6,-,N/A,,Mostly Cloudy,350,2012-11-15 22:51:00
6:51 PM,39.0,30.0,70,30.38,10.0,Calm,Calm,-,N/A,,Mostly Cloudy,0,2012-11-15 23:51:00
8:51 PM,33.8,28.4,81,30.36,10.0,Calm,Calm,-,N/A,,Mostly Cloudy,0,2012-11-16 01:51:00
9:51 PM,33.1,28.9,85,30.40,10.0,Calm,Calm,-,N/A,,Mostly Cloudy,0,2012-11-16 02:51:00
10:47 PM,32.0,28.4,87,30.37,10.0,South,3.5,-,N/A,,Mostly Cloudy,170,2012-11-16 03:47:00
10:51 PM,32.0,28.9,88,30.40,10.0,SSE,4.6,-,N/A,,Mostly Cloudy,150,2012-11-16 03:51:00
11:51 PM,32.0,30.0,92,30.40,10.0,Calm,Calm,-,N/A,,Mostly Cloudy,0,2012-11-16 04:51:00